Aérodrome :
LOGIN :

S'inscrire | Disclaimer

   EN    FR    IT 

 










Légende :    VFR   VFR Marginal   IFR   IFR Intensif   IFR Très Intensif
Visi : 
Plafond : 
>= 8 km
>= 3000ft
5 à 8 km
1000 à 3000 ft
1500m à 5 km
500 à 1000 ft
800 à 1500m
200 à 500 ft
< 800m
< 200 ft
Symboles :   Orages  Brouillard  Fortes neiges  Fortes précipitations  Vent > 20 kt
SIGMETs :   Divers  Orages  Givrage  Turbulence  Onde Orograph.  Cendres Volcan.







- Altitude de l'aérodrome : 13 ft
- Code IATA : SNR
- Voir les cartes d'approche


LFRZ - St-Nazaire

DERNIER METAR :
  • 290700Z AUTO 27009KT 250V320 9999 SCT016 SCT086 17/13 Q0998 TEMPO 24015G25KT 2000 TSRA BKN008 BKN020CB

METARs EXPIRÉS :
  • 290630Z AUTO 26010KT 9999 FEW046 BKN068 BKN080 16/14 Q0998 TEMPO 24015G25KT 2000 TSRA BKN008 BKN020CB
  • 290600Z AUTO 25008KT 9999 FEW020 SCT078 16/14 Q0998 TEMPO SHRA FEW009 BKN014 BKN030TCU
  • 290530Z AUTO 23008KT 9999 SCT022 SCT043 BKN056 15/13 Q0998 TEMPO SHRA FEW009 BKN014 BKN030TCU
  • 290500Z AUTO 24007KT 9999 FEW023 SCT066 15/13 Q0998 TEMPO SHRA BKN014 BKN030TCU
  • 290430Z AUTO 21007KT 9999 FEW011 SCT022 15/13 Q0998 TEMPO SHRA BKN014 BKN030TCU

TAF TAF LFRZ
Valide du 29 à 06h jusqu'au 30 à 06h UTC


290500Z 2906/3006 20005KT 9999 BKN020
TEMPO 2906/3006 5000 SHRA FEW009 BKN014 BKN030TCU
BECMG 2906/2909 25012KT
PROB40
TEMPO 2908/2919 24015G25KT 2000 TSRA BKN008 BKN020CB
BECMG 2922/3001 31012KT
Pas de NOTAMs connus pour ce terrain.
1 SIGMET publié pour la FIR Brest (LFRR) :
 
Turbulence forte
LFRR SIGMET 1 VALID 290530/290930 LFPW
LFRR BREST FIR/UIR SEV TURB FCST SE OF LINE N4445 W00145 - N4415 W00500 SFC/FL050 STNR INTSF=



MET'MAP, la Météo Aéronautique d'un coup d'oeil ! - Copyright ORBIFLY Décembre 2007 - Disclaimer

ORBIFLY MET'MAP TEAM :

Programmation & Développement : Alexandra Zaïnal
Conception & Développement : Baudouin d'Aumeries
Co-Programmation & Développement : Marc-Olivier Méhu
Soutien technique & logistique : Manuel Goepfert

Contact : metmap@orbifly.com




SOURCES & CREDITS :

   NOAA